Muir Army Air Field (Fort Indiantown Gap) Airport Fort Indiantown Gap(Annville) US
ICAO: KMUI
IATA: MUI
Category: Medium
Scheduled Services: No

Elevation: 488 ft
TransAlt. 18000 ft.

Airport Communications:
HARRISBURG APP/DEP:118.25
CTAF:126.2
GND:121.625
FLT FLW:40.9
ARNG OPS:49.95
TWR:126.2

KMUI Zoom In..

If you have problems with the map follow the link
https://www.worldairports.se/pages/airport.php?
ICAO=KMUI

Runways:

(A) RW 07 length 3978 ft width 98 ft
---- / hdg 70

(B) RW 25 length 3978 ft width 98 ft
---- / hdg 250

Location; KMUI
Day. 22 / Time. 10.56 Zulu
* Altimeter: 30.24
* Temperature: 03° c. 37.4°f.
* Wind from: 250° Speed 03 kn.
Dewpoint: -01° c.
Visibility: 10 Statute Miles.
Clouds: Overcast 11000 ft.

KMUI 221056Z AUTO 25003KT 10SM OVC110 03/M01 A3024 RMK AO2 SLP247 T00311007 $


Wind From 250°
Speed 03 kn.

 
 
jpsmedia.com for Web Design worldairports.se 2018   terms of use